Terminal Aerodrome Forecast
Issued by NWS San Angelo, TX

Home | Current Version | Previous Version | Text Only | Print | Product List | Glossary On
Versions: 1 2 3 4 5 6 7 8 9 10 11 12 13
286
FTUS44 KSJT 062328
TAFSJT
TAF
KSJT 062328Z 0700/0724 34008KT P6SM SKC
     FM070200 VRB05KT P6SM SKC
     FM071600 25011KT P6SM SKC
     FM072200 33011KT P6SM SKC=

USA.gov is the U.S. government's official web portal to all federal, state and local government web resources and services.